Time;durP1;ratioP1;P1;durP2;ratioP2;P2;SDS_P1;SDS_P2;PMS_P1;PMS_P2;Temp;Humidity;BMP_temperature;BMP_pressure;BME280_temperature;BME280_humidity;BME280_pressure;Samples;Min_cycle;Max_cycle;Signal;HPM_P1;HPM_P2
2022/01/10 00:01:39;;;;;;;;;51.00;43.67;;;;;5.53;100.00;100739.34;5060685;28;45334;-83
2022/01/10 00:04:04;;;;;;;;;56.67;43.67;;;;;5.52;100.00;100748.16;5062230;28;44773;-83
2022/01/10 00:06:29;;;;;;;;;51.67;43.00;;;;;5.50;100.00;100754.41;5060215;28;45076;-84
2022/01/10 00:08:55;;;;;;;;;51.33;43.67;;;;;5.49;100.00;100748.28;5059700;28;45237;-83
2022/01/10 00:11:20;;;;;;;;;51.33;42.67;;;;;5.49;100.00;100747.44;5060057;28;44797;-82
2022/01/10 00:13:46;;;;;;;;;53.67;44.67;;;;;5.48;100.00;100749.22;5059245;28;44846;-84
2022/01/10 00:16:11;;;;;;;;;52.33;43.33;;;;;5.52;100.00;100755.22;5059414;28;45639;-83
2022/01/10 00:18:36;;;;;;;;;53.67;43.33;;;;;5.52;100.00;100765.75;5058813;28;44823;-82
2022/01/10 00:21:02;;;;;;;;;53.33;44.00;;;;;5.51;100.00;100764.91;5058465;28;45351;-83
2022/01/10 00:23:28;;;;;;;;;73.33;54.67;;;;;5.52;100.00;100769.25;5057607;28;44916;-83
2022/01/10 00:25:54;;;;;;;;;54.67;44.00;;;;;5.53;100.00;100772.72;5062790;28;45223;-83
2022/01/10 00:28:19;;;;;;;;;51.33;41.67;;;;;5.55;100.00;100778.78;5062818;28;44756;-82
2022/01/10 00:30:45;;;;;;;;;57.33;43.33;;;;;5.55;100.00;100782.25;5068038;28;45269;-81
2022/01/10 00:33:10;;;;;;;;;53.00;44.00;;;;;5.56;100.00;100788.38;5065156;28;44925;-82
2022/01/10 00:35:35;;;;;;;;;50.67;39.67;;;;;5.55;100.00;100790.16;5061867;28;46240;-81
2022/01/10 00:38:01;;;;;;;;;56.00;44.33;;;;;5.57;100.00;100792.75;5060431;28;44741;-83
2022/01/10 00:40:26;;;;;;;;;55.33;44.00;;;;;5.59;100.00;100794.38;5059724;28;45589;-84
2022/01/10 00:42:56;;;;;;;;;56.00;42.67;;;;;5.60;100.00;100796.06;5059734;28;45348;-82
2022/01/10 00:45:26;;;;;;;;;55.33;45.00;;;;;5.62;100.00;100801.31;5059341;28;45405;-82
2022/01/10 00:47:56;;;;;;;;;55.67;43.33;;;;;5.61;100.00;100797.81;5059351;28;44796;-82
2022/01/10 00:50:21;;;;;;;;;49.33;41.00;;;;;5.62;100.00;100802.16;5057419;28;44751;-83
2022/01/10 00:52:47;;;;;;;;;60.00;45.00;;;;;5.64;100.00;100808.19;5058946;28;45359;-82
2022/01/10 00:55:12;;;;;;;;;49.67;42.00;;;;;5.67;100.00;100799.31;5060839;28;45515;-82
2022/01/10 00:57:38;;;;;;;;;52.00;43.67;;;;;5.70;100.00;100806.22;5059953;28;44793;-83
2022/01/10 01:00:06;;;;;;;;;51.00;40.67;;;;;5.67;100.00;100794.91;5058949;28;45321;-83
2022/01/10 01:02:32;;;;;;;;;53.00;42.00;;;;;5.69;100.00;100808.00;5058377;28;44938;-83
2022/01/10 01:05:05;;;;;;;;;57.67;44.33;;;;;5.67;100.00;100804.59;5057688;28;44921;-83
2022/01/10 01:07:30;;;;;;;;;56.33;45.00;;;;;5.67;100.00;100815.97;5058012;28;45453;-83
2022/01/10 01:10:59;;;;;;;;;50.33;43.33;;;;;5.67;100.00;100810.72;5058052;28;45739;-82
2022/01/10 01:12:59;;;;;;;;;55.67;44.00;;;;;5.64;100.00;100818.75;5056691;28;45407;-81
2022/01/10 01:15:30;;;;;;;;;54.67;45.00;;;;;5.62;100.00;100825.03;5058054;28;45442;-83
2022/01/10 01:25:57;;;;;;;;;52.00;43.67;;;;;5.61;100.00;100850.53;5061000;28;45239;-83
2022/01/10 01:28:22;;;;;;;;;56.00;42.33;;;;;5.61;100.00;100854.94;5058550;28;45350;-82
2022/01/10 01:30:48;;;;;;;;;54.00;44.67;;;;;5.63;100.00;100860.97;5056349;28;44849;-81
2022/01/10 01:33:15;;;;;;;;;52.67;41.33;;;;;5.63;100.00;100867.09;5057527;28;44777;-82
2022/01/10 01:35:40;;;;;;;;;55.67;40.33;;;;;5.62;100.00;100870.69;5057893;28;45192;-81
2022/01/10 01:38:07;;;;;;;;;48.67;39.00;;;;;5.61;100.00;100871.59;5057811;28;45497;-82
2022/01/10 01:40:34;;;;;;;;;55.33;43.33;;;;;5.61;100.00;100881.28;5057959;28;45320;-81
2022/01/10 01:43:00;;;;;;;;;50.33;41.33;;;;;5.62;100.00;100888.28;5058039;28;45466;-81
2022/01/10 01:45:44;;;;;;;;;56.33;47.33;;;;;5.62;100.00;100894.38;5056138;28;45416;-82
2022/01/10 01:48:11;;;;;;;;;55.33;44.67;;;;;5.63;100.00;100895.25;5058255;28;44804;-81
2022/01/10 01:50:37;;;;;;;;;51.67;42.33;;;;;5.63;100.00;100903.16;5060701;28;44753;-82
2022/01/10 01:53:04;;;;;;;;;53.33;41.33;;;;;5.62;100.00;100902.28;5057768;28;45268;-81
2022/01/10 01:55:30;;;;;;;;;57.00;45.67;;;;;5.61;100.00;100905.00;5057464;28;45407;-82
2022/01/10 01:57:55;;;;;;;;;51.33;38.33;;;;;5.59;100.00;100910.31;5056934;28;45283;-81
2022/01/10 02:00:22;;;;;;;;;53.00;44.33;;;;;5.60;100.00;100917.31;5057189;28;44729;-81
2022/01/10 02:02:52;;;;;;;;;50.67;44.00;;;;;5.62;100.00;100919.88;5057237;28;44841;-81
2022/01/10 02:05:18;;;;;;;;;55.33;44.33;;;;;5.62;100.00;100914.63;5057466;28;45442;-81
2022/01/10 02:07:44;;;;;;;;;48.67;41.33;;;;;5.63;100.00;100917.19;5057456;28;44834;-82
2022/01/10 02:10:10;;;;;;;;;50.00;42.33;;;;;5.63;100.00;100911.06;5057360;28;44659;-81
2022/01/10 02:12:36;;;;;;;;;56.00;41.67;;;;;5.58;100.00;100907.75;5057461;28;44754;-81
2022/01/10 02:15:02;;;;;;;;;3.00;0.00;;;;;5.58;100.00;100923.56;5057067;28;44998;-81
2022/01/10 02:17:34;;;;;;;;;48.67;41.00;;;;;5.55;100.00;100919.28;5058129;28;45109;-82
2022/01/10 02:20:01;;;;;;;;;48.67;41.00;;;;;5.51;100.00;100924.75;5058012;28;45446;-81
2022/01/10 02:22:27;;;;;;;;;44.67;40.00;;;;;5.45;100.00;100917.97;5057269;28;44900;-81
2022/01/10 02:24:52;;;;;;;;;52.67;41.67;;;;;5.40;100.00;100926.06;5056636;28;45493;-80
2022/01/10 02:27:24;;;;;;;;;54.67;44.00;;;;;5.35;100.00;100927.19;5055519;28;44789;-81
2022/01/10 02:29:51;;;;;;;;;51.67;43.33;;;;;5.32;100.00;100932.59;5056438;28;44837;-81
2022/01/10 02:32:17;;;;;;;;;52.33;41.67;;;;;5.28;100.00;100928.38;5057005;28;44927;-82
2022/01/10 02:34:42;;;;;;;;;52.33;43.67;;;;;5.27;100.00;100932.78;5057420;28;45212;-82
2022/01/10 02:37:08;;;;;;;;;52.67;43.67;;;;;5.22;100.00;100923.34;5058309;28;44816;-84
2022/01/10 02:39:34;;;;;;;;;52.00;43.00;;;;;5.17;100.00;100939.34;5060178;28;44705;-81
2022/01/10 02:41:59;;;;;;;;;51.33;39.67;;;;;5.14;100.00;100936.84;5060493;28;44823;-81
2022/01/10 02:44:28;;;;;;;;;53.00;42.33;;;;;5.09;100.00;100934.41;5058279;28;45339;-81
2022/01/10 02:46:53;;;;;;;;;53.67;44.67;;;;;5.03;100.00;100933.78;5058015;28;45272;-81
2022/01/10 02:49:28;;;;;;;;;53.00;41.67;;;;;4.99;100.00;100935.69;5058297;28;44933;-82
2022/01/10 02:51:56;;;;;;;;;53.00;40.33;;;;;4.95;100.00;100949.06;5058044;28;45322;-80
2022/01/10 02:54:23;;;;;;;;;51.33;44.67;;;;;4.88;100.00;100954.56;5058836;28;45162;-82
2022/01/10 02:56:51;;;;;;;;;52.00;44.00;;;;;4.85;100.00;100962.56;5057148;28;45437;-82
2022/01/10 02:59:17;;;;;;;;;48.67;41.00;;;;;4.80;100.00;100972.44;5056199;28;45364;-81
2022/01/10 03:01:43;;;;;;;;;56.67;43.33;;;;;4.78;100.00;100978.66;5056978;28;45473;-82
2022/01/10 03:04:09;;;;;;;;;59.00;48.00;;;;;4.77;100.00;100982.22;5056187;28;45239;-80
2022/01/10 03:06:34;;;;;;;;;54.67;44.33;;;;;4.75;100.00;100991.97;5056590;28;44813;-80
2022/01/10 03:09:05;;;;;;;;;51.33;43.33;;;;;4.70;100.00;100981.59;5056647;28;44946;-82
2022/01/10 03:11:34;;;;;;;;;56.33;42.33;;;;;4.68;100.00;100986.06;5056831;28;44775;-82
2022/01/10 03:14:00;;;;;;;;;46.33;41.67;;;;;4.63;100.00;100998.53;5054492;28;45351;-80
2022/01/10 03:16:25;;;;;;;;;54.33;44.67;;;;;4.63;100.00;101004.63;5056852;28;45466;-81
2022/01/10 03:18:51;;;;;;;;;57.67;46.00;;;;;4.61;100.00;101003.00;5057640;28;44884;-81
2022/01/10 03:21:19;;;;;;;;;55.00;44.67;;;;;4.58;100.00;101005.75;5055159;28;45058;-82
2022/01/10 03:23:45;;;;;;;;;51.33;42.33;;;;;4.59;100.00;101016.22;5056873;28;45044;-82
2022/01/10 03:26:10;;;;;;;;;49.33;41.67;;;;;4.58;100.00;101014.47;5056803;28;44727;-82
2022/01/10 03:28:36;;;;;;;;;58.33;45.67;;;;;4.57;100.00;101025.94;5056817;28;44883;-84
2022/01/10 03:31:01;;;;;;;;;62.33;45.67;;;;;4.57;100.00;101014.56;5056891;28;45221;-83
2022/01/10 03:33:27;;;;;;;;;56.67;44.33;;;;;4.56;100.00;101018.97;5056970;28;45196;-82
2022/01/10 03:35:52;;;;;;;;;59.33;47.00;;;;;4.56;100.00;101012.84;5055590;28;45165;-81
2022/01/10 03:38:18;;;;;;;;;44.33;39.00;;;;;4.54;100.00;101019.91;5060505;28;45038;-82
2022/01/10 03:40:43;;;;;;;;;55.67;45.00;;;;;4.50;100.00;101027.09;5062421;28;44800;-83
2022/01/10 03:43:09;;;;;;;;;59.67;45.00;;;;;4.49;100.00;101030.59;5060192;28;45767;-82
2022/01/10 03:45:35;;;;;;;;;59.00;47.33;;;;;4.47;100.00;101027.19;5059982;28;45266;-82
2022/01/10 03:48:00;;;;;;;;;58.67;45.00;;;;;4.45;100.00;101030.78;5061674;28;44727;-82
2022/01/10 03:50:26;;;;;;;;;53.67;45.00;;;;;4.44;100.00;101036.97;5062357;28;44788;-82
2022/01/10 03:52:51;;;;;;;;;58.67;46.33;;;;;4.43;100.00;101044.00;5060350;28;45009;-81
2022/01/10 03:55:17;;;;;;;;;58.33;47.67;;;;;4.41;100.00;101037.94;5061289;28;44845;-82
2022/01/10 03:57:42;;;;;;;;;54.33;45.00;;;;;4.42;100.00;101046.69;5059715;28;44884;-81
2022/01/10 04:00:09;;;;;;;;;57.67;46.67;;;;;4.42;100.00;101050.19;5059807;28;44825;-83
2022/01/10 04:02:38;;;;;;;;;59.33;46.00;;;;;4.38;100.00;101046.78;5059693;28;45032;-82
2022/01/10 04:05:04;;;;;;;;;62.00;47.67;;;;;4.39;100.00;101050.28;5059468;28;44954;-83
2022/01/10 04:07:29;;;;;;;;;60.00;49.67;;;;;4.41;100.00;101061.63;5059916;28;44766;-82
2022/01/10 04:09:54;;;;;;;;;56.67;46.67;;;;;4.39;100.00;101064.28;5058164;28;45220;-82
2022/01/10 04:12:21;;;;;;;;;58.33;48.67;;;;;4.40;100.00;101070.44;5058966;28;45283;-83
2022/01/10 04:14:46;;;;;;;;;33.00;25.00;;;;;4.37;100.00;101073.16;5058078;28;44772;-82
2022/01/10 04:17:12;;;;;;;;;62.33;49.33;;;;;4.34;100.00;101078.50;5058887;28;45465;-82
2022/01/10 04:19:38;;;;;;;;;60.67;49.00;;;;;4.30;100.00;101076.91;5059530;28;44859;-82
2022/01/10 04:22:04;;;;;;;;;59.67;47.00;;;;;4.25;100.00;101079.69;5060831;28;45125;-82
2022/01/10 04:24:29;;;;;;;;;65.00;49.00;;;;;4.21;100.00;101080.75;5058431;28;45349;-82
2022/01/10 04:26:55;;;;;;;;;57.67;46.00;;;;;4.20;100.00;101076.38;5057926;28;44816;-83
2022/01/10 04:29:20;;;;;;;;;56.33;46.33;;;;;4.18;100.00;101088.72;5059059;28;45422;-82
2022/01/10 04:31:46;;;;;;;;;61.33;49.00;;;;;4.17;100.00;101086.16;5059183;28;45381;-83
2022/01/10 04:34:12;;;;;;;;;59.00;43.33;;;;;4.13;100.00;101086.25;5059054;28;45352;-83
2022/01/10 04:36:37;;;;;;;;;62.33;50.67;;;;;4.10;100.00;101096.00;5059316;28;44776;-82
2022/01/10 04:39:03;;;;;;;;;60.00;48.33;;;;;4.09;100.00;101099.56;5060732;28;45351;-82
2022/01/10 04:41:29;;;;;;;;;64.00;49.00;;;;;4.07;100.00;101107.50;5059811;28;45376;-82
2022/01/10 04:43:55;;;;;;;;;59.33;47.33;;;;;4.03;100.00;101115.53;5059903;28;45308;-82
2022/01/10 04:46:20;;;;;;;;;58.00;46.00;;;;;4.02;100.00;101121.72;5060019;28;44809;-83
2022/01/10 04:48:46;;;;;;;;;58.33;46.00;;;;;4.00;100.00;101126.16;5058061;28;44817;-83
2022/01/10 04:51:12;;;;;;;;;58.33;49.00;;;;;3.99;100.00;101130.56;5059663;28;45178;-83
2022/01/10 04:53:40;;;;;;;;;57.33;45.00;;;;;3.98;100.00;101128.84;5060315;28;44834;-82
2022/01/10 04:56:06;;;;;;;;;57.67;48.33;;;;;3.93;100.00;101141.28;5060993;28;45385;-83
2022/01/10 04:58:31;;;;;;;;;58.33;46.67;;;;;3.89;100.00;101138.81;5060086;28;44863;-83
2022/01/10 05:00:57;;;;;;;;;61.67;49.33;;;;;3.89;100.00;101152.78;5059350;28;45059;-83
2022/01/10 05:03:23;;;;;;;;;61.33;49.00;;;;;3.86;100.00;101151.13;5057155;28;45418;-84
2022/01/10 05:05:53;;;;;;;;;61.67;47.33;;;;;3.83;100.00;101155.63;5057975;28;44799;-82
2022/01/10 05:08:19;;;;;;;;;59.67;46.33;;;;;3.79;100.00;101161.88;5058939;28;44805;-82
2022/01/10 05:10:45;;;;;;;;;59.33;47.33;;;;;3.76;100.00;101159.34;5061713;28;45171;-80
2022/01/10 05:13:11;;;;;;;;;63.67;49.67;;;;;3.72;100.00;101160.34;5060914;28;45467;-81
2022/01/10 05:15:37;;;;;;;;;60.67;50.00;;;;;3.69;100.00;101170.97;5059478;28;44840;-81
2022/01/10 05:18:02;;;;;;;;;58.33;48.67;;;;;3.69;100.00;101169.22;5059362;28;45384;-82
2022/01/10 05:20:28;;;;;;;;;62.33;49.67;;;;;3.66;100.00;101171.06;5059956;28;45984;-83
2022/01/10 05:22:53;;;;;;;;;63.00;49.67;;;;;3.60;100.00;101162.47;5060566;28;44913;-83
2022/01/10 05:25:18;;;;;;;;;56.67;48.00;;;;;3.60;100.00;101170.34;5061989;28;45316;-82
2022/01/10 05:27:44;;;;;;;;;67.33;54.00;;;;;3.58;100.00;101180.06;5072905;28;44737;-82
2022/01/10 05:30:10;;;;;;;;;66.67;49.00;;;;;3.58;100.00;101187.09;5074958;28;45154;-82
2022/01/10 05:32:35;;;;;;;;;67.67;54.00;;;;;3.55;100.00;101179.28;5071998;28;44754;-81
2022/01/10 05:35:05;;;;;;;;;69.67;53.00;;;;;3.54;100.00;101190.69;5072254;28;44675;-81
2022/01/10 05:37:30;;;;;;;;;69.00;54.00;;;;;3.52;100.00;101197.75;5067092;28;44892;-81
2022/01/10 05:39:56;;;;;;;;;60.00;48.00;;;;;3.50;100.00;101195.19;5058400;28;45276;-81
2022/01/10 05:42:21;;;;;;;;;63.67;52.00;;;;;3.48;100.00;101199.63;5057554;28;44802;-80
2022/01/10 05:44:46;;;;;;;;;69.33;52.33;;;;;3.45;100.00;101204.97;5056805;28;45451;-82
2022/01/10 05:47:12;;;;;;;;;66.33;54.00;;;;;3.44;100.00;101212.91;5058325;28;44955;-82
2022/01/10 05:49:45;;;;;;;;;59.67;49.33;;;;;3.42;100.00;101219.94;5058810;28;45187;-83
2022/01/10 05:52:10;;;;;;;;;64.00;51.33;;;;;3.42;100.00;101217.31;5058297;28;44776;-83
2022/01/10 05:54:36;;;;;;;;;69.67;53.33;;;;;3.40;100.00;101225.25;5057389;28;44699;-81
2022/01/10 05:57:01;;;;;;;;;64.00;51.33;;;;;3.39;100.00;101225.31;5057931;28;44937;-82
2022/01/10 05:59:27;;;;;;;;;61.00;50.33;;;;;3.37;100.00;101234.97;5055979;28;46591;-81
2022/01/10 06:01:52;;;;;;;;;66.33;52.67;;;;;3.38;100.00;101247.19;5061061;28;44781;-82
2022/01/10 06:04:18;;;;;;;;;67.00;51.67;;;;;3.35;100.00;101256.91;5058526;28;45301;-84
2022/01/10 06:06:43;;;;;;;;;64.00;53.33;;;;;3.36;100.00;101263.00;5058701;28;44806;-85
2022/01/10 06:09:08;;;;;;;;;63.33;52.00;;;;;3.38;100.00;101261.19;5057276;28;44983;-83
2022/01/10 06:11:34;;;;;;;;;64.00;50.33;;;;;3.42;100.00;101265.44;5057682;28;44662;-83
2022/01/10 06:14:01;;;;;;;;;65.33;53.00;;;;;3.45;100.00;101267.13;5058145;28;44765;-84
2022/01/10 06:16:28;;;;;;;;;70.33;56.00;;;;;3.53;100.00;101283.50;5057996;28;44873;-86
2022/01/10 06:18:56;;;;;;;;;69.00;54.33;;;;;3.57;100.00;101285.16;5058194;28;44996;-83
2022/01/10 06:21:22;;;;;;;;;72.67;54.00;;;;;3.65;100.00;101298.94;5057149;28;44802;-83
2022/01/10 06:23:47;;;;;;;;;68.33;54.00;;;;;3.72;100.00;101300.47;5057247;28;45401;-83
2022/01/10 06:26:13;;;;;;;;;59.67;49.33;;;;;3.78;100.00;101310.81;5057660;28;44810;-84
2022/01/10 06:28:38;;;;;;;;;70.33;55.33;;;;;3.84;100.00;101309.78;5056609;28;46637;-84
2022/01/10 06:31:03;;;;;;;;;66.67;53.33;;;;;3.87;100.00;101320.19;5057644;28;45537;-83
2022/01/10 06:33:29;;;;;;;;;61.00;50.67;;;;;3.91;100.00;101316.53;5057781;28;45016;-84
2022/01/10 06:35:54;;;;;;;;;63.33;50.00;;;;;3.95;100.00;101312.06;5059110;28;44829;-85
2022/01/10 06:38:19;;;;;;;;;65.33;51.67;;;;;3.99;100.00;101316.31;5061922;27;45407;-85
2022/01/10 06:40:45;;;;;;;;;63.00;50.33;;;;;4.02;100.00;101319.72;5083090;27;44795;-84
2022/01/10 06:43:10;;;;;;;;;69.33;51.33;;;;;4.03;100.00;101326.69;5078897;27;45398;-85
2022/01/10 06:45:37;;;;;;;;;58.67;46.00;;;;;4.05;100.00;101330.13;5079036;28;44857;-85
2022/01/10 06:48:03;;;;;;;;;48.33;40.00;;;;;4.06;100.00;101338.88;5079994;28;45322;-85
2022/01/10 06:50:30;;;;;;;;;61.33;44.00;;;;;4.06;100.00;101341.50;5079161;27;44760;-85
2022/01/10 06:52:57;;;;;;;;;53.00;41.33;;;;;4.08;100.00;101347.59;5078397;28;45300;-84
2022/01/10 06:55:22;;;;;;;;;54.33;42.00;;;;;4.12;100.00;101354.50;5078062;27;44684;-84
2022/01/10 06:57:48;;;;;;;;;56.33;43.67;;;;;4.15;100.00;101374.56;5078171;27;45257;-85
2022/01/10 07:00:13;;;;;;;;;53.00;40.33;;;;;4.19;100.00;101371.78;5078066;27;44732;-85
2022/01/10 07:02:39;;;;;;;;;54.33;43.00;;;;;4.22;100.00;101384.84;5079169;28;45243;-85
2022/01/10 07:05:05;;;;;;;;;48.00;38.00;;;;;4.24;100.00;101383.03;5080938;27;44650;-83
2022/01/10 07:07:30;;;;;;;;;40.33;34.33;;;;;4.25;100.00;101390.00;5082022;28;44969;-84
2022/01/10 07:09:55;;;;;;;;;45.33;34.00;;;;;4.27;100.00;101400.50;5077718;28;45336;-83
2022/01/10 07:12:21;;;;;;;;;41.00;31.67;;;;;4.26;100.00;101409.31;5080534;27;45353;-84
2022/01/10 07:14:46;;;;;;;;;46.33;38.00;;;;;4.27;100.00;101414.50;5082070;27;44762;-84
2022/01/10 07:17:11;;;;;;;;;51.00;38.00;;;;;4.28;100.00;101418.84;5084031;27;46566;-84
2022/01/10 07:19:37;;;;;;;;;57.00;41.67;;;;;4.30;100.00;101424.94;5085450;27;44787;-84
2022/01/10 07:22:03;;;;;;;;;48.33;40.00;;;;;4.28;100.00;101428.50;5080708;28;44785;-84
2022/01/10 07:24:29;;;;;;;;;48.00;40.67;;;;;4.24;100.00;101440.03;5081016;27;44866;-87
2022/01/10 07:26:55;;;;;;;;;57.00;42.00;;;;;4.20;100.00;101443.66;5081543;27;45379;-84
2022/01/10 07:29:20;;;;;;;;;49.00;41.00;;;;;4.12;100.00;101446.50;5090235;27;45330;-83
2022/01/10 07:31:45;;;;;;;;;56.00;42.00;;;;;4.04;100.00;101443.22;5088904;27;45114;-83
2022/01/10 07:34:14;;;;;;;;;51.33;38.67;;;;;4.03;100.00;101452.03;5085194;28;45432;-82
2022/01/10 07:36:40;;;;;;;;;45.00;36.33;;;;;4.01;100.00;101465.22;5083095;27;45304;-85
2022/01/10 07:39:05;;;;;;;;;45.33;37.67;;;;;3.98;100.00;101475.81;5069446;28;45297;-85
2022/01/10 07:41:31;;;;;;;;;52.00;40.33;;;;;3.94;100.00;101489.94;5060569;28;45498;-84
2022/01/10 07:43:58;;;;;;;;;31.33;27.00;;;;;3.91;100.00;101495.28;5060165;28;44865;-85
2022/01/10 07:46:23;;;;;;;;;50.00;43.00;;;;;3.86;100.00;101499.78;5058460;28;46026;-85
2022/01/10 07:48:49;;;;;;;;;54.00;42.33;;;;;3.81;100.00;101501.69;5058589;28;45303;-86
2022/01/10 07:51:14;;;;;;;;;52.33;39.67;;;;;3.76;100.00;101509.69;5061129;28;45435;-85
2022/01/10 07:53:41;;;;;;;;;41.33;35.33;;;;;3.71;100.00;101519.47;5061651;28;45704;-83
2022/01/10 07:56:07;;;;;;;;;47.67;36.67;;;;;3.64;100.00;101528.41;5066992;28;45101;-85
2022/01/10 07:58:34;;;;;;;;;37.33;36.00;;;;;3.59;100.00;101536.41;5063780;28;44789;-83
2022/01/10 08:00:59;;;;;;;;;35.33;31.33;;;;;3.56;100.00;101540.88;5060219;28;44729;-84
2022/01/10 08:03:26;;;;;;;;;41.33;31.33;;;;;3.54;100.00;101546.19;5060630;28;45327;-84
2022/01/10 08:05:51;;;;;;;;;34.67;31.67;;;;;3.52;100.00;101547.97;5065131;28;45063;-85
2022/01/10 08:08:17;;;;;;;;;32.33;30.67;;;;;3.52;100.00;101555.84;5063299;28;44713;-86
2022/01/10 08:10:42;;;;;;;;;37.00;31.33;;;;;3.54;100.00;101561.94;5067346;28;45340;-86
2022/01/10 08:13:07;;;;;;;;;36.33;31.67;;;;;3.55;100.00;101568.06;5064254;28;45406;-85
2022/01/10 08:15:33;;;;;;;;;47.33;34.67;;;;;3.57;100.00;101566.22;5061050;28;45001;-84
2022/01/10 08:18:00;;;;;;;;;36.67;29.33;;;;;3.61;100.00;101563.50;5060624;28;45086;-87
2022/01/10 08:20:34;;;;;;;;;37.33;33.00;;;;;3.64;100.00;101565.19;5060599;28;45375;-85
2022/01/10 08:23:00;;;;;;;;;49.00;38.33;;;;;3.67;100.00;101562.47;5059752;28;45513;-85
2022/01/10 08:25:25;;;;;;;;;53.33;38.33;;;;;3.72;100.00;101565.84;5059854;28;45185;-86
2022/01/10 08:27:50;;;;;;;;;40.00;35.33;;;;;3.75;100.00;101567.56;5059731;28;44755;-85
2022/01/10 08:30:17;;;;;;;;;48.00;36.33;;;;;3.75;100.00;101573.66;5059940;28;44734;-85
2022/01/10 08:32:42;;;;;;;;;47.00;39.00;;;;;3.78;100.00;101581.47;5059638;28;44920;-86
2022/01/10 08:35:08;;;;;;;;;41.00;34.33;;;;;3.82;100.00;101588.41;5065239;28;45458;-86
2022/01/10 08:37:34;;;;;;;;;46.00;37.33;;;;;3.87;100.00;101590.91;5066136;28;44772;-87
2022/01/10 08:39:59;;;;;;;;;45.33;35.67;;;;;3.92;100.00;101599.53;5078505;28;44793;-84
2022/01/10 08:42:27;;;;;;;;;42.67;35.67;;;;;3.93;100.00;101601.25;5080996;27;45391;-85
2022/01/10 08:44:53;;;;;;;;;43.67;34.33;;;;;3.93;100.00;101600.41;5080672;27;45234;-87
2022/01/10 08:47:20;;;;;;;;;41.67;25.67;;;;;3.93;100.00;101598.63;5080343;27;44751;-85
2022/01/10 08:49:46;;;;;;;;;41.67;30.33;;;;;3.98;100.00;101609.88;5079844;27;44812;-87
2022/01/10 08:52:11;;;;;;;;;44.00;36.00;;;;;4.02;100.00;101608.91;5080315;27;45352;-85
2022/01/10 08:54:37;;;;;;;;;45.67;27.67;;;;;4.06;100.00;101617.56;5078769;27;44997;-85
2022/01/10 08:57:03;;;;;;;;;48.00;37.67;;;;;4.12;100.00;101620.91;5081452;28;45287;-86
2022/01/10 08:59:29;;;;;;;;;60.67;42.67;;;;;4.13;100.00;101624.41;5081127;27;45328;-85
2022/01/10 09:01:58;;;;;;;;;40.67;33.33;;;;;4.13;100.00;101632.28;5080275;28;45303;-83
2022/01/10 09:04:24;;;;;;;;;41.67;31.67;;;;;4.18;100.00;101650.56;5079155;27;45346;-89
2022/01/10 09:06:51;;;;;;;;;53.67;38.33;;;;;4.22;100.00;101647.81;5079459;27;44819;-85
2022/01/10 09:09:19;;;;;;;;;55.33;42.33;;;;;4.20;100.00;101638.25;5071578;27;44723;-86
2022/01/10 09:11:45;;;;;;;;;47.00;39.33;;;;;4.19;100.00;101650.53;5078360;28;44962;-86
2022/01/10 09:14:12;;;;;;;;;43.33;36.00;;;;;4.19;100.00;101655.78;5082302;28;45239;-84
2022/01/10 09:16:38;;;;;;;;;34.00;27.33;;;;;4.22;100.00;101662.75;5071864;27;45370;-84
2022/01/10 09:19:03;;;;;;;;;35.00;27.00;;;;;4.24;100.00;101658.31;5066689;28;45339;-84
2022/01/10 09:21:29;;;;;;;;;38.33;30.67;;;;;4.29;100.00;101657.28;5074871;28;44811;-85
2022/01/10 09:23:55;;;;;;;;;43.67;37.00;;;;;4.36;100.00;101671.16;5061991;28;46045;-85
2022/01/10 09:26:22;;;;;;;;;48.00;38.00;;;;;4.41;100.00;101657.88;5061742;28;44836;-84
2022/01/10 09:28:47;;;;;;;;;41.33;31.00;;;;;4.50;100.00;101661.13;5068250;28;44952;-85
2022/01/10 09:31:14;;;;;;;;;43.00;34.67;;;;;4.55;100.00;101674.16;5060224;28;45397;-85
2022/01/10 09:33:40;;;;;;;;;39.00;32.67;;;;;4.62;100.00;101681.81;5075411;27;45240;-84
2022/01/10 09:36:06;;;;;;;;;41.67;31.33;;;;;4.72;100.00;101686.84;5075294;28;45338;-84
2022/01/10 09:38:31;;;;;;;;;36.33;25.33;;;;;4.75;100.00;101687.63;5071952;28;45194;-84
2022/01/10 09:40:57;;;;;;;;;35.00;30.00;;;;;4.82;100.00;101693.56;5068858;27;44892;-85
2022/01/10 09:43:23;;;;;;;;;32.67;26.00;;;;;4.89;100.00;101693.38;5043656;28;46646;-85
2022/01/10 09:45:51;;;;;;;;;28.00;26.67;;;;;4.97;100.00;101697.56;5077666;27;44998;-84
2022/01/10 09:48:17;;;;;;;;;24.67;24.67;;;;;4.98;100.00;101705.44;5080203;27;45327;-85
2022/01/10 09:50:43;;;;;;;;;38.00;34.33;;;;;5.01;100.00;101704.47;5074648;27;44902;-85
2022/01/10 09:53:10;;;;;;;;;38.00;32.67;;;;;4.99;100.00;101712.41;5066328;28;45060;-84
2022/01/10 09:55:35;;;;;;;;;43.33;31.67;;;;;4.99;100.00;101722.09;5069703;28;44732;-84
2022/01/10 09:58:03;;;;;;;;;38.33;28.67;;;;;4.96;100.00;101712.50;5078150;28;44861;-85
2022/01/10 10:00:29;;;;;;;;;33.67;25.67;;;;;5.00;100.00;101723.81;5074761;27;45581;-85
2022/01/10 10:02:55;;;;;;;;;33.67;31.67;;;;;4.99;100.00;101719.44;5069598;28;46288;-85
2022/01/10 10:05:20;;;;;;;;;40.67;31.33;;;;;5.02;100.00;101729.88;5074533;27;44829;-86
2022/01/10 10:07:46;;;;;;;;;32.00;28.00;;;;;5.02;100.00;101735.16;5079498;27;44833;-85
2022/01/10 10:10:13;;;;;;;;;31.00;27.00;;;;;5.03;100.00;101748.28;5065341;28;45522;-85
2022/01/10 10:12:40;;;;;;;;;34.67;29.33;;;;;5.03;100.00;101750.03;5069878;28;45088;-85
2022/01/10 10:15:09;;;;;;;;;33.00;29.67;;;;;5.06;100.00;101749.97;5069798;28;45395;-87
2022/01/10 10:17:36;;;;;;;;;38.00;32.00;;;;;5.11;100.00;101751.56;5062715;27;45323;-85
2022/01/10 10:20:22;;;;;;;;;38.00;31.67;;;;;5.10;100.00;101744.56;5079947;27;45571;-85
2022/01/10 10:22:50;;;;;;;;;32.33;29.67;;;;;5.16;100.00;101752.28;5070552;27;45496;-86
2022/01/10 10:25:16;;;;;;;;;42.00;34.67;;;;;5.20;100.00;101753.06;5078554;28;45469;-85
2022/01/10 10:27:45;;;;;;;;;31.33;30.00;;;;;5.24;100.00;101746.81;5061570;28;45373;-84
2022/01/10 10:30:12;;;;;;;;;51.67;36.33;;;;;5.27;100.00;101753.75;5061575;28;45304;-85
2022/01/10 10:32:38;;;;;;;;;38.00;34.00;;;;;5.30;100.00;101758.94;5075217;28;45434;-86
2022/01/10 10:35:05;;;;;;;;;42.00;34.33;;;;;5.33;100.00;101753.59;5074455;28;44815;-87
2022/01/10 10:37:36;;;;;;;;;40.00;35.00;;;;;5.32;100.00;101746.59;5080069;28;45387;-87
2022/01/10 10:40:08;;;;;;;;;49.67;34.33;;;;;5.34;100.00;101763.22;5071499;27;45478;-88
2022/01/10 10:42:34;;;;;;;;;49.00;40.00;;;;;5.43;100.00;101762.97;5065337;28;45459;-88
2022/01/10 10:45:17;;;;;;;;;42.33;36.33;;;;;5.50;100.00;101763.63;5069847;27;45452;-89
2022/01/10 10:48:06;;;;;;;;;;;;;;;;;;;;;
2022/01/10 10:51:02;;;;;;;;;38.00;34.33;;;;;5.61;100.00;101770.34;5066346;27;69243;-88
2022/01/10 10:53:54;;;;;;;;;39.33;35.67;;;;;5.65;100.00;101779.84;5069670;28;45079;-88
2022/01/10 11:00:04;;;;;;;;;44.67;35.00;;;;;5.63;100.00;101771.13;5038234;28;44857;-88
2022/01/10 11:05:43;;;;;;;;;43.67;33.67;;;;;5.49;100.00;101783.00;5054079;28;45205;-86
2022/01/10 11:08:09;;;;;;;;;44.00;39.00;;;;;5.50;100.00;101790.00;5037714;28;44765;-87
2022/01/10 11:10:51;;;;;;;;;41.00;35.00;;;;;5.48;100.00;101773.38;5054377;28;44830;-88
2022/01/10 11:13:49;;;;;;;;;44.67;37.67;;;;;5.58;100.00;101788.88;5041544;28;44981;-89
2022/01/10 11:16:45;;;;;;;;;31.67;21.33;;;;;5.63;100.00;101784.31;5019914;28;45151;-89
2022/01/10 11:19:19;;;;;;;;;34.33;29.33;;;;;5.63;100.00;101786.94;5064682;28;44803;-89
2022/01/10 11:22:01;;;;;;;;;44.67;35.00;;;;;5.62;100.00;101789.66;5047612;28;44866;-89
2022/01/10 11:25:12;;;;;;;;;48.67;34.33;;;;;5.71;100.00;101786.75;5042971;28;44989;-88
2022/01/10 11:27:44;;;;;;;;;37.67;33.33;;;;;5.76;100.00;101800.66;5043010;28;45489;-87